createdAt,value
2022-11-18T00:01:11.406Z,10.16
2022-11-18T00:03:39.709Z,9.82
2022-11-18T00:06:08.193Z,9.20
2022-11-18T00:08:35.508Z,9.00
2022-11-18T00:11:13.188Z,8.98
2022-11-18T00:13:59.118Z,9.67
2022-11-18T00:16:26.693Z,9.72
2022-11-18T00:18:54.082Z,9.64
2022-11-18T00:21:21.426Z,9.20
2022-11-18T00:23:49.216Z,8.83
2022-11-18T00:26:16.528Z,9.40
2022-11-18T00:28:43.950Z,9.01
2022-11-18T00:31:13.703Z,9.33
2022-11-18T00:33:41.253Z,8.80
2022-11-18T00:36:11.023Z,9.31
2022-11-18T00:38:39.576Z,9.40
2022-11-18T00:41:12.776Z,9.36
2022-11-18T00:43:41.010Z,9.41
2022-11-18T00:46:10.158Z,9.40
2022-11-18T00:48:37.981Z,9.02
2022-11-18T00:51:17.376Z,8.46
2022-11-18T00:53:45.126Z,8.97
2022-11-18T00:56:12.716Z,9.29
2022-11-18T00:58:40.017Z,9.22
2022-11-18T01:01:07.433Z,8.90
2022-11-18T01:03:35.037Z,8.31
2022-11-18T01:06:02.369Z,8.22
2022-11-18T01:08:29.693Z,8.38
2022-11-18T01:11:17.227Z,8.44
2022-11-18T01:13:44.645Z,8.25
2022-11-18T01:16:18.895Z,7.90
2022-11-18T01:18:46.297Z,8.25
2022-11-18T01:21:13.954Z,7.98
2022-11-18T01:23:41.275Z,8.07
2022-11-18T01:26:10.930Z,8.09
2022-11-18T01:28:38.547Z,7.93
2022-11-18T01:31:08.115Z,8.41
2022-11-18T01:33:35.665Z,8.49
2022-11-18T01:36:03.299Z,8.02
2022-11-18T01:38:30.949Z,8.16
2022-11-18T01:40:58.264Z,8.15
2022-11-18T01:43:25.849Z,9.02
2022-11-18T01:45:54.175Z,8.55
2022-11-18T01:48:33.324Z,8.19
2022-11-18T01:51:04.995Z,7.95
2022-11-18T01:53:34.615Z,8.37
2022-11-18T01:56:06.956Z,8.69
2022-11-18T01:58:39.685Z,8.81
2022-11-18T02:01:08.106Z,8.19
2022-11-18T02:03:36.134Z,7.88
2022-11-18T02:06:05.288Z,7.80
2022-11-18T02:08:32.943Z,7.72
2022-11-18T02:11:00.260Z,7.54
2022-11-18T02:13:27.824Z,6.78
2022-11-18T02:16:13.594Z,7.35
2022-11-18T02:18:55.258Z,7.76
2022-11-18T02:21:42.539Z,8.46
2022-11-18T02:24:22.206Z,8.57
2022-11-18T02:27:20.907Z,8.32
2022-11-18T02:30:15.438Z,8.46
2022-11-18T02:32:48.715Z,8.58
2022-11-18T02:35:28.977Z,8.23
2022-11-18T02:38:07.912Z,8.12
2022-11-18T02:40:43.651Z,7.86
2022-11-18T02:46:08.118Z,7.76
2022-11-18T02:48:39.237Z,7.36
2022-11-18T02:51:09.320Z,7.60
2022-11-18T02:53:38.605Z,7.81
2022-11-18T02:56:07.373Z,8.34
2022-11-18T02:58:34.947Z,8.67
2022-11-18T03:01:02.529Z,8.27
2022-11-18T03:03:32.208Z,8.70
2022-11-18T03:06:10.801Z,8.55
2022-11-18T03:08:42.781Z,8.50
2022-11-18T03:11:17.416Z,8.13
2022-11-18T03:14:16.004Z,7.65
2022-11-18T03:16:52.530Z,8.38
2022-11-18T03:19:24.932Z,8.56
2022-11-18T03:22:07.545Z,8.73
2022-11-18T03:24:35.664Z,8.96
2022-11-18T03:27:27.285Z,8.57
2022-11-18T03:29:59.968Z,8.16
2022-11-18T03:32:30.655Z,8.71
2022-11-18T03:35:02.426Z,8.69
2022-11-18T03:37:32.305Z,8.79
2022-11-18T03:40:23.403Z,8.72
2022-11-18T03:42:54.658Z,8.34
2022-11-18T03:45:26.633Z,8.68
2022-11-18T03:48:07.419Z,8.37
2022-11-18T03:50:39.729Z,8.76
2022-11-18T03:53:07.678Z,8.66
2022-11-18T03:55:39.966Z,8.79
2022-11-18T03:58:20.500Z,8.38
2022-11-18T04:00:50.311Z,8.74
2022-11-18T04:03:18.043Z,8.72
2022-11-18T04:05:46.570Z,9.08
2022-11-18T04:08:19.209Z,8.82
2022-11-18T04:11:00.213Z,8.81
2022-11-18T04:13:31.236Z,9.19
2022-11-18T04:15:58.912Z,8.87
2022-11-18T04:18:27.186Z,7.96
2022-11-18T04:20:54.544Z,8.14
2022-11-18T04:23:22.137Z,7.79
2022-11-18T04:25:49.448Z,8.17
2022-11-18T04:28:16.763Z,7.99
2022-11-18T04:30:44.388Z,8.25
2022-11-18T04:33:11.694Z,8.12
2022-11-18T04:35:39.004Z,8.22
2022-11-18T04:38:06.619Z,8.71
2022-11-18T04:40:33.926Z,8.67
2022-11-18T04:43:01.243Z,8.89
2022-11-18T04:45:28.866Z,9.20
2022-11-18T04:48:01.936Z,9.24
2022-11-18T04:50:30.870Z,8.91
2022-11-18T04:52:58.105Z,9.36
2022-11-18T04:55:27.251Z,9.25
2022-11-18T04:57:54.943Z,8.97
2022-11-18T05:00:22.501Z,9.12
2022-11-18T05:02:49.817Z,8.97
2022-11-18T05:05:17.404Z,9.26
2022-11-18T05:07:44.753Z,8.54
2022-11-18T05:10:12.235Z,9.01
2022-11-18T05:12:52.576Z,9.02
2022-11-18T05:15:21.625Z,9.40
2022-11-18T05:17:49.542Z,9.03
2022-11-18T05:20:17.064Z,8.38
2022-11-18T05:22:44.347Z,9.61
2022-11-18T05:25:11.937Z,9.63
2022-11-18T05:27:39.248Z,9.20
2022-11-18T05:30:07.066Z,8.79
2022-11-18T05:32:34.642Z,8.49
2022-11-18T05:35:01.954Z,8.73
2022-11-18T05:37:32.582Z,8.94
2022-11-18T05:40:00.191Z,8.69
2022-11-18T05:42:46.139Z,9.03
2022-11-18T05:45:15.975Z,8.88
2022-11-18T05:48:03.050Z,8.51
2022-11-18T05:50:31.577Z,8.64
2022-11-18T05:52:58.898Z,8.82
2022-11-18T05:55:30.381Z,9.10
2022-11-18T05:57:58.062Z,9.06
2022-11-18T06:00:25.379Z,9.24
2022-11-18T06:02:54.305Z,9.64
2022-11-18T06:05:22.848Z,9.55
2022-11-18T06:07:50.201Z,9.83
2022-11-18T06:10:21.990Z,9.69
2022-11-18T06:12:51.052Z,9.71
2022-11-18T06:15:21.956Z,9.69
2022-11-18T06:17:54.131Z,9.39
2022-11-18T06:20:22.119Z,9.44
2022-11-18T06:22:50.971Z,9.15
2022-11-18T06:25:18.345Z,9.32
2022-11-18T06:27:46.440Z,9.10
2022-11-18T06:30:14.215Z,9.61
2022-11-18T06:32:41.618Z,9.03
2022-11-18T06:35:09.551Z,8.74
2022-11-18T06:37:36.947Z,8.54
2022-11-18T06:40:04.483Z,8.71
2022-11-18T06:42:50.843Z,8.68
2022-11-18T06:45:18.265Z,8.71
2022-11-18T06:47:45.902Z,8.67
2022-11-18T06:50:13.343Z,8.83
2022-11-18T06:52:40.701Z,8.98
2022-11-18T06:55:08.697Z,9.02
2022-11-18T06:57:36.012Z,9.20
2022-11-18T07:00:04.255Z,9.06
2022-11-18T07:02:31.949Z,9.02
2022-11-18T07:04:59.266Z,9.15
2022-11-18T07:07:26.706Z,8.80
2022-11-18T07:09:54.353Z,9.03
2022-11-18T07:12:21.831Z,9.19
2022-11-18T07:14:49.177Z,8.39
2022-11-18T07:17:16.825Z,9.04
2022-11-18T07:19:44.135Z,9.02
2022-11-18T07:22:11.452Z,8.90
2022-11-18T07:24:39.108Z,8.94
2022-11-18T07:27:06.413Z,8.86
2022-11-18T07:29:33.986Z,8.43
2022-11-18T07:32:01.558Z,8.25
2022-11-18T07:34:28.901Z,8.71
2022-11-18T07:36:56.229Z,8.76
2022-11-18T07:39:23.802Z,8.86
2022-11-18T07:41:51.124Z,9.07
2022-11-18T07:44:18.761Z,9.35
2022-11-18T07:46:46.442Z,9.39
2022-11-18T07:49:13.906Z,8.95
2022-11-18T07:51:41.253Z,8.81
2022-11-18T07:54:12.740Z,8.94
2022-11-18T07:56:40.303Z,9.21
2022-11-18T07:59:07.703Z,9.33
2022-11-18T08:01:35.583Z,9.69
2022-11-18T08:04:12.926Z,8.85
2022-11-18T08:06:40.743Z,9.41
2022-11-18T08:09:09.062Z,9.58
2022-11-18T08:11:36.837Z,9.12
2022-11-18T08:14:04.442Z,8.86
2022-11-18T08:16:32.073Z,8.61
2022-11-18T08:19:00.275Z,8.87
2022-11-18T08:21:27.788Z,8.73
2022-11-18T08:23:57.262Z,8.49
2022-11-18T08:26:25.177Z,7.95
2022-11-18T08:28:53.012Z,8.64
2022-11-18T08:31:25.915Z,8.72
2022-11-18T08:34:06.879Z,8.58
2022-11-18T08:36:37.078Z,8.75
2022-11-18T08:39:07.044Z,8.56
2022-11-18T08:41:40.010Z,9.10
2022-11-18T08:44:08.147Z,8.67
2022-11-18T08:46:35.712Z,8.81
2022-11-18T08:49:03.222Z,9.00
2022-11-18T08:51:31.640Z,8.89
2022-11-18T08:54:00.155Z,8.82
2022-11-18T08:56:27.743Z,9.08
2022-11-18T08:58:56.085Z,9.12
2022-11-18T09:01:23.833Z,9.56
2022-11-18T09:03:51.908Z,9.29
2022-11-18T09:06:21.216Z,9.28
2022-11-18T09:08:48.814Z,9.42
2022-11-18T09:11:27.107Z,9.43
2022-11-18T09:16:43.779Z,9.27
2022-11-18T09:19:46.028Z,8.76
2022-11-18T09:21:59.520Z,9.37
2022-11-18T09:24:27.331Z,9.06
2022-11-18T09:26:54.726Z,9.22
2022-11-18T09:29:25.936Z,9.55
2022-11-18T09:31:54.198Z,9.34
2022-11-18T09:34:22.272Z,9.15
2022-11-18T09:36:50.071Z,8.77
2022-11-18T09:39:17.749Z,8.78
2022-11-18T09:42:19.219Z,8.87
2022-11-18T09:44:51.147Z,8.46
2022-11-18T09:47:32.190Z,8.69
2022-11-18T09:50:33.877Z,8.76
2022-11-18T09:53:21.031Z,9.09
2022-11-18T09:55:50.270Z,8.74
2022-11-18T09:58:36.187Z,8.71
2022-11-18T10:01:12.371Z,8.73
2022-11-18T10:03:40.487Z,8.37
2022-11-18T10:06:23.788Z,8.16
2022-11-18T10:09:17.497Z,8.19
2022-11-18T10:12:02.372Z,8.18
2022-11-18T10:14:46.788Z,8.34
2022-11-18T10:17:39.713Z,8.62
2022-11-18T10:20:38.316Z,8.84
2022-11-18T10:23:14.788Z,8.59
2022-11-18T10:25:42.636Z,9.07
2022-11-18T10:28:30.393Z,8.47
2022-11-18T10:31:06.948Z,8.37
2022-11-18T10:33:34.693Z,8.66
2022-11-18T10:36:19.808Z,8.49
2022-11-18T10:38:50.210Z,8.72
2022-11-18T10:41:20.632Z,8.19
2022-11-18T10:43:53.592Z,8.57
2022-11-18T10:46:27.295Z,8.86
2022-11-18T10:49:16.490Z,8.50
2022-11-18T10:51:47.281Z,8.40
2022-11-18T10:54:21.549Z,8.13
2022-11-18T10:56:58.088Z,8.05
2022-11-18T10:59:31.852Z,8.94
2022-11-18T11:02:10.107Z,8.67
2022-11-18T11:04:37.865Z,9.01
2022-11-18T11:07:25.100Z,9.08
2022-11-18T11:10:04.476Z,8.92
2022-11-18T11:12:37.321Z,8.91
2022-11-18T11:15:11.213Z,8.87
2022-11-18T11:17:42.669Z,9.04
2022-11-18T11:20:21.816Z,8.99
2022-11-18T11:22:49.441Z,8.98
2022-11-18T11:28:48.542Z,9.25
2022-11-18T11:31:53.636Z,8.79
2022-11-18T11:34:48.825Z,8.10
2022-11-18T11:37:37.649Z,8.48
2022-11-18T11:40:16.497Z,8.60
2022-11-18T11:43:08.777Z,8.51
2022-11-18T11:45:46.999Z,8.85
2022-11-18T11:48:18.423Z,8.93
2022-11-18T11:51:10.848Z,9.38
2022-11-18T11:54:00.604Z,9.44
2022-11-18T11:56:59.306Z,9.16
2022-11-18T11:59:35.699Z,9.11
2022-11-18T12:02:31.503Z,9.20
2022-11-18T12:05:27.930Z,9.29
2022-11-18T12:08:00.628Z,8.80
2022-11-18T12:10:29.876Z,8.91
2022-11-18T12:13:32.495Z,9.30
2022-11-18T12:16:12.032Z,8.74
2022-11-18T12:18:46.430Z,8.83
2022-11-18T12:21:48.147Z,9.07
2022-11-18T12:24:18.270Z,8.54
2022-11-18T12:26:47.320Z,9.29
2022-11-18T12:29:20.874Z,9.14
2022-11-18T12:31:51.855Z,8.74
2022-11-18T12:34:24.872Z,8.56
2022-11-18T12:36:53.971Z,9.05
2022-11-18T12:39:24.320Z,9.21
2022-11-18T12:42:17.034Z,9.07
2022-11-18T12:44:46.622Z,9.07
2022-11-18T12:47:15.288Z,8.84
2022-11-18T12:49:45.600Z,8.86
2022-11-18T12:52:31.355Z,8.67
2022-11-18T12:55:01.394Z,8.66
2022-11-18T12:57:30.951Z,8.51
2022-11-18T12:59:58.939Z,8.73
2022-11-18T13:02:28.429Z,8.79
2022-11-18T13:05:09.428Z,8.23
2022-11-18T13:08:14.350Z,8.40
2022-11-18T13:11:17.898Z,8.71
2022-11-18T13:13:46.058Z,8.66
2022-11-18T13:16:41.619Z,9.10
2022-11-18T13:19:09.511Z,8.94
2022-11-18T13:21:55.315Z,9.11
2022-11-18T13:24:23.093Z,9.04
2022-11-18T13:26:56.383Z,9.00
2022-11-18T13:29:38.118Z,9.22
2022-11-18T13:32:22.443Z,9.62
2022-11-18T13:34:52.098Z,9.52
2022-11-18T13:37:28.232Z,9.56
2022-11-18T13:39:56.120Z,8.91
2022-11-18T13:42:24.523Z,9.45
2022-11-18T13:44:59.698Z,9.42
2022-11-18T13:47:35.912Z,9.10
2022-11-18T13:50:32.843Z,9.07
2022-11-18T13:53:06.721Z,9.04
2022-11-18T13:55:40.893Z,8.89
2022-11-18T13:58:55.759Z,9.12
2022-11-18T14:01:25.870Z,8.89
2022-11-18T14:03:59.193Z,9.35
2022-11-18T14:06:30.849Z,8.88
2022-11-18T14:09:20.161Z,8.98
2022-11-18T14:15:23.561Z,8.65
2022-11-18T14:17:54.212Z,8.52
2022-11-18T14:20:22.118Z,8.55
2022-11-18T14:22:53.563Z,8.69
2022-11-18T14:25:26.140Z,8.73
2022-11-18T14:27:56.072Z,8.68
2022-11-18T14:30:37.233Z,8.37
2022-11-18T14:33:14.484Z,8.48
2022-11-18T14:35:44.347Z,9.08
2022-11-18T14:38:35.947Z,9.09
2022-11-18T14:41:03.580Z,9.10
2022-11-18T14:43:31.438Z,8.93
2022-11-18T14:46:10.984Z,8.90
2022-11-18T14:48:38.907Z,9.24
2022-11-18T14:51:06.332Z,9.16
2022-11-18T14:53:33.632Z,9.29
2022-11-18T14:56:01.362Z,9.32
2022-11-18T14:58:28.713Z,9.23
2022-11-18T15:00:56.165Z,9.11
2022-11-18T15:03:24.199Z,9.09
2022-11-18T15:05:51.607Z,9.12
2022-11-18T15:08:18.922Z,8.93
2022-11-18T15:10:46.525Z,9.14
2022-11-18T15:13:13.827Z,8.94
2022-11-18T15:15:41.155Z,8.58
2022-11-18T15:18:09.403Z,8.68
2022-11-18T15:20:36.716Z,8.88
2022-11-18T15:23:04.080Z,9.27
2022-11-18T15:25:31.673Z,9.39
2022-11-18T15:27:59.015Z,9.20
2022-11-18T15:30:26.527Z,9.24
2022-11-18T15:32:54.105Z,9.27
2022-11-18T15:35:21.488Z,9.43
2022-11-18T15:37:48.824Z,9.38
2022-11-18T15:40:16.673Z,9.69
2022-11-18T15:42:51.541Z,9.40
2022-11-18T15:45:19.760Z,9.21
2022-11-18T15:47:47.431Z,9.17
2022-11-18T15:50:15.239Z,9.21
2022-11-18T15:52:42.861Z,9.30
2022-11-18T15:55:10.278Z,9.48
2022-11-18T15:57:37.632Z,9.28
2022-11-18T16:00:05.717Z,9.67
2022-11-18T16:02:39.660Z,9.50
2022-11-18T16:07:54.997Z,9.31
2022-11-18T16:10:41.522Z,9.86
2022-11-18T16:13:09.132Z,9.77
2022-11-18T16:15:48.085Z,9.83
2022-11-18T16:18:17.876Z,9.72
2022-11-18T16:20:45.464Z,9.58
2022-11-18T16:23:13.051Z,9.53
2022-11-18T16:25:44.609Z,9.34
2022-11-18T16:28:12.214Z,9.07
2022-11-18T16:30:58.209Z,9.43
2022-11-18T16:33:25.784Z,9.52
2022-11-18T16:35:53.250Z,9.51
2022-11-18T16:38:20.723Z,9.72
2022-11-18T16:40:55.684Z,10.03
2022-11-18T16:43:24.133Z,9.80
2022-11-18T16:45:52.881Z,10.13
2022-11-18T16:48:21.206Z,10.11
2022-11-18T16:51:18.438Z,10.35
2022-11-18T16:53:53.487Z,9.93
2022-11-18T16:56:22.175Z,10.25
2022-11-18T16:58:49.783Z,10.02
2022-11-18T17:01:22.062Z,10.28
2022-11-18T17:03:53.361Z,10.00
2022-11-18T17:06:21.818Z,9.85
2022-11-18T17:08:49.188Z,10.34
2022-11-18T17:11:23.482Z,10.53
2022-11-18T17:13:56.329Z,10.61
2022-11-18T17:16:26.237Z,10.62
2022-11-18T17:18:55.510Z,10.42
2022-11-18T17:21:23.381Z,10.01
2022-11-18T17:23:52.553Z,10.24
2022-11-18T17:26:23.259Z,10.42
2022-11-18T17:28:51.303Z,10.06
2022-11-18T17:31:21.263Z,10.06
2022-11-18T17:33:49.521Z,9.93
2022-11-18T17:36:18.978Z,10.33
2022-11-18T17:38:48.754Z,9.85
2022-11-18T17:41:41.277Z,10.09
2022-11-18T17:44:11.112Z,9.81
2022-11-18T17:46:38.902Z,9.62
2022-11-18T17:49:12.584Z,9.41
2022-11-18T17:51:40.694Z,8.88
2022-11-18T17:54:09.159Z,9.34
2022-11-18T17:56:36.496Z,9.78
2022-11-18T17:59:05.091Z,9.76
2022-11-18T18:01:32.751Z,9.53
2022-11-18T18:04:00.830Z,9.28
2022-11-18T18:06:28.392Z,9.70
2022-11-18T18:08:57.170Z,9.59
2022-11-18T18:11:26.698Z,9.43
2022-11-18T18:14:12.927Z,9.39
2022-11-18T18:16:48.642Z,9.20
2022-11-18T18:19:21.368Z,9.16
2022-11-18T18:21:49.208Z,9.54
2022-11-18T18:24:18.467Z,9.26
2022-11-18T18:26:46.277Z,9.67
2022-11-18T18:29:15.040Z,9.82
2022-11-18T18:31:42.668Z,9.78
2022-11-18T18:34:10.543Z,9.91
2022-11-18T18:36:38.507Z,10.20
2022-11-18T18:39:06.259Z,9.39
2022-11-18T18:41:37.138Z,9.49
2022-11-18T18:44:05.311Z,9.35
2022-11-18T18:46:33.096Z,9.51
2022-11-18T18:49:12.129Z,9.57
2022-11-18T18:51:42.146Z,9.52
2022-11-18T18:54:11.234Z,9.63
2022-11-18T18:56:39.251Z,9.69
2022-11-18T18:59:07.926Z,9.42
2022-11-18T19:01:35.940Z,9.61
2022-11-18T19:04:05.879Z,9.83
2022-11-18T19:06:58.138Z,9.81
2022-11-18T19:09:23.836Z,9.77
2022-11-18T19:12:10.703Z,9.62
2022-11-18T19:14:38.097Z,9.86
2022-11-18T19:17:10.785Z,9.57
2022-11-18T19:19:59.590Z,8.87
2022-11-18T19:22:31.325Z,9.46
2022-11-18T19:25:00.445Z,9.49
2022-11-18T19:27:28.965Z,9.39
2022-11-18T19:29:56.754Z,9.31
2022-11-18T19:32:24.162Z,9.70
2022-11-18T19:34:52.200Z,9.70
2022-11-18T19:37:19.782Z,9.39
2022-11-18T19:39:47.598Z,9.46
2022-11-18T19:42:15.234Z,9.74
2022-11-18T19:44:42.997Z,8.79
2022-11-18T19:47:10.857Z,9.55
2022-11-18T19:49:39.102Z,8.81
2022-11-18T19:52:07.049Z,9.00
2022-11-18T19:54:34.893Z,9.19
2022-11-18T19:57:04.165Z,9.65
2022-11-18T19:59:31.889Z,9.70
2022-11-18T20:01:59.474Z,9.30
2022-11-18T20:04:27.315Z,9.30
2022-11-18T20:06:55.180Z,9.58
2022-11-18T20:09:23.178Z,9.38
2022-11-18T20:11:51.113Z,9.09
2022-11-18T20:14:18.527Z,8.90
2022-11-18T20:16:46.348Z,9.21
2022-11-18T20:19:14.423Z,8.98
2022-11-18T20:21:43.535Z,8.72
2022-11-18T20:24:16.133Z,8.73
2022-11-18T20:26:44.909Z,8.35
2022-11-18T20:29:13.231Z,8.71
2022-11-18T20:31:41.447Z,8.20
2022-11-18T20:34:13.005Z,8.56
2022-11-18T20:36:40.922Z,7.75
2022-11-18T20:39:15.055Z,8.17
2022-11-18T20:41:43.581Z,8.52
2022-11-18T20:44:11.555Z,8.15
2022-11-18T20:46:39.401Z,8.33
2022-11-18T20:49:06.969Z,8.41
2022-11-18T20:51:35.136Z,8.44
2022-11-18T20:54:07.726Z,8.72
2022-11-18T20:56:35.487Z,8.18
2022-11-18T20:59:03.339Z,8.35
2022-11-18T21:01:32.035Z,8.14
2022-11-18T21:04:03.661Z,8.38
2022-11-18T21:06:32.453Z,7.90
2022-11-18T21:09:04.731Z,7.90
2022-11-18T21:11:36.340Z,7.88
2022-11-18T21:14:24.708Z,7.47
2022-11-18T21:17:03.552Z,7.71
2022-11-18T21:19:32.907Z,7.61
2022-11-18T21:22:00.336Z,7.50
2022-11-18T21:24:29.611Z,6.95
2022-11-18T21:26:58.738Z,7.14
2022-11-18T21:29:28.023Z,7.15
2022-11-18T21:31:56.413Z,7.35
2022-11-18T21:34:24.532Z,6.95
2022-11-18T21:36:54.932Z,6.78
2022-11-18T21:39:24.327Z,6.90
2022-11-18T21:41:56.373Z,7.06
2022-11-18T21:44:25.954Z,6.90
2022-11-18T21:46:53.719Z,6.80
2022-11-18T21:49:21.566Z,6.06
2022-11-18T21:51:49.214Z,6.32
2022-11-18T21:54:18.385Z,6.29
2022-11-18T21:56:46.022Z,6.68
2022-11-18T21:59:13.349Z,5.98
2022-11-18T22:01:40.932Z,6.34
2022-11-18T22:04:08.489Z,6.40
2022-11-18T22:06:35.844Z,6.45
2022-11-18T22:09:04.718Z,6.66
2022-11-18T22:11:32.382Z,6.85
2022-11-18T22:13:59.746Z,6.96
2022-11-18T22:16:27.210Z,6.87
2022-11-18T22:18:59.103Z,6.34
2022-11-18T22:21:28.662Z,6.49
2022-11-18T22:23:59.206Z,6.64
2022-11-18T22:26:27.530Z,6.11
2022-11-18T22:28:56.831Z,5.94
2022-11-18T22:31:26.500Z,6.53
2022-11-18T22:33:54.539Z,6.08
2022-11-18T22:36:24.411Z,6.27
2022-11-18T22:38:52.908Z,6.47
2022-11-18T22:41:41.473Z,5.95
2022-11-18T22:44:09.561Z,6.29
2022-11-18T22:46:37.925Z,6.15
2022-11-18T22:49:07.309Z,6.45
2022-11-18T22:51:35.709Z,5.86
2022-11-18T22:56:51.558Z,5.78
2022-11-18T22:59:19.187Z,5.89
2022-11-18T23:01:46.590Z,5.89
2022-11-18T23:04:14.256Z,6.05
2022-11-18T23:06:41.561Z,5.53
2022-11-18T23:09:09.768Z,5.32
2022-11-18T23:12:06.394Z,5.37
2022-11-18T23:14:33.822Z,5.10
2022-11-18T23:17:01.429Z,5.25
2022-11-18T23:19:28.753Z,5.28
2022-11-18T23:21:56.098Z,5.68
2022-11-18T23:24:23.675Z,5.40
2022-11-18T23:26:51.197Z,5.28
2022-11-18T23:29:18.995Z,5.34
2022-11-18T23:31:46.870Z,5.42
2022-11-18T23:34:15.505Z,5.66
2022-11-18T23:36:43.302Z,5.27
2022-11-18T23:39:11.460Z,5.63
2022-11-18T23:41:39.537Z,5.82
2022-11-18T23:44:07.142Z,5.19
2022-11-18T23:46:34.815Z,5.50
2022-11-18T23:49:02.154Z,5.74
2022-11-18T23:51:29.478Z,5.58
2022-11-18T23:53:57.638Z,5.12
2022-11-18T23:56:26.635Z,5.29
2022-11-18T23:58:55.270Z,5.03
